createdAt,value
2022-09-01T00:00:05.384Z,14.85
2022-09-01T00:02:34.099Z,14.84
2022-09-01T00:05:01.993Z,14.83
2022-09-01T00:07:31.537Z,14.80
2022-09-01T00:09:59.479Z,14.76
2022-09-01T00:12:27.225Z,14.75
2022-09-01T00:14:54.120Z,14.73
2022-09-01T00:17:21.428Z,14.73
2022-09-01T00:19:48.431Z,14.73
2022-09-01T00:22:15.402Z,14.72
2022-09-01T00:24:42.558Z,14.68
2022-09-01T00:27:09.282Z,14.66
2022-09-01T00:29:36.675Z,14.65
2022-09-01T00:32:04.960Z,14.64
2022-09-01T00:34:31.814Z,14.64
2022-09-01T00:36:58.783Z,14.64
2022-09-01T00:39:25.765Z,14.63
2022-09-01T00:41:52.654Z,14.62
2022-09-01T00:44:24.375Z,14.61
2022-09-01T00:46:57.085Z,14.59
2022-09-01T00:49:29.825Z,14.59
2022-09-01T00:52:17.661Z,14.59
2022-09-01T00:54:54.676Z,14.59
2022-09-01T00:57:22.792Z,14.57
2022-09-01T01:00:02.005Z,14.56
2022-09-01T01:02:29.212Z,14.55
2022-09-01T01:05:00.658Z,14.54
2022-09-01T01:07:29.321Z,14.53
2022-09-01T01:09:57.717Z,14.55
2022-09-01T01:12:27.940Z,14.52
2022-09-01T01:14:55.076Z,14.48
2022-09-01T01:17:23.353Z,14.50
2022-09-01T01:20:15.732Z,14.49
2022-09-01T01:23:15.961Z,14.48
2022-09-01T01:25:50.349Z,14.45
2022-09-01T01:28:35.998Z,14.44
2022-09-01T01:31:14.741Z,14.44
2022-09-01T01:33:51.605Z,14.42
2022-09-01T01:36:36.268Z,14.43
2022-09-01T01:39:16.410Z,14.41
2022-09-01T01:41:48.849Z,14.35
2022-09-01T01:44:20.545Z,14.37
2022-09-01T01:46:51.871Z,14.37
2022-09-01T01:49:23.466Z,14.37
2022-09-01T01:51:56.160Z,14.36
2022-09-01T01:54:25.999Z,14.35
2022-09-01T01:56:52.760Z,14.34
2022-09-01T01:59:19.636Z,14.34
2022-09-01T02:01:49.329Z,14.31
2022-09-01T02:04:18.086Z,14.26
2022-09-01T02:06:46.339Z,14.26
2022-09-01T02:09:20.202Z,14.27
2022-09-01T02:11:47.034Z,14.22
2022-09-01T02:14:16.414Z,14.18
2022-09-01T02:16:43.417Z,14.18
2022-09-01T02:19:12.283Z,14.16
2022-09-01T02:21:44.759Z,14.13
2022-09-01T02:24:12.033Z,14.14
2022-09-01T02:26:47.414Z,14.11
2022-09-01T02:29:22.035Z,14.07
2022-09-01T02:31:53.242Z,14.03
2022-09-01T02:34:24.334Z,14.04
2022-09-01T02:36:55.495Z,14.04
2022-09-01T02:39:30.073Z,14.05
2022-09-01T02:41:57.614Z,14.04
2022-09-01T02:44:24.969Z,14.02
2022-09-01T02:46:51.858Z,14.02
2022-09-01T02:49:28.348Z,13.99
2022-09-01T02:52:01.191Z,13.94
2022-09-01T02:54:29.982Z,13.96
2022-09-01T02:56:57.416Z,13.97
2022-09-01T02:59:29.149Z,13.96
2022-09-01T03:01:57.580Z,13.91
2022-09-01T03:04:27.061Z,13.90
2022-09-01T03:06:55.296Z,13.89
2022-09-01T03:09:23.075Z,13.87
2022-09-01T03:11:53.286Z,13.81
2022-09-01T03:14:23.560Z,13.75
2022-09-01T03:16:50.550Z,13.75
2022-09-01T03:19:19.225Z,13.70
2022-09-01T03:21:48.663Z,13.69
2022-09-01T03:24:18.728Z,13.67
2022-09-01T03:26:49.835Z,13.63
2022-09-01T03:29:18.775Z,13.57
2022-09-01T03:31:46.207Z,13.53
2022-09-01T03:34:13.663Z,13.45
2022-09-01T03:36:50.557Z,13.40
2022-09-01T03:39:19.304Z,13.34
2022-09-01T03:41:46.545Z,13.30
2022-09-01T03:44:15.251Z,13.31
2022-09-01T03:46:43.641Z,13.23
2022-09-01T03:49:15.144Z,13.18
2022-09-01T03:51:45.177Z,13.11
2022-09-01T03:54:13.031Z,13.04
2022-09-01T03:56:41.819Z,13.00
2022-09-01T03:59:17.117Z,12.97
2022-09-01T04:01:45.492Z,12.90
2022-09-01T04:04:16.629Z,12.94
2022-09-01T04:06:46.153Z,12.94
2022-09-01T04:09:13.819Z,12.90
2022-09-01T04:11:45.837Z,12.89
2022-09-01T04:14:13.552Z,12.85
2022-09-01T04:16:59.279Z,12.74
2022-09-01T04:19:27.592Z,12.77
2022-09-01T04:22:00.873Z,12.85
2022-09-01T04:24:32.297Z,12.84
2022-09-01T04:27:02.668Z,12.83
2022-09-01T04:29:31.958Z,12.79
2022-09-01T04:32:09.722Z,12.79
2022-09-01T04:34:40.002Z,12.90
2022-09-01T04:37:21.164Z,12.72
2022-09-01T04:39:56.489Z,12.63
2022-09-01T04:42:29.754Z,12.61
2022-09-01T04:44:57.677Z,12.49
2022-09-01T04:47:36.032Z,12.41
2022-09-01T04:50:14.878Z,12.41
2022-09-01T04:52:46.209Z,12.42
2022-09-01T04:55:18.290Z,12.44
2022-09-01T04:57:49.231Z,12.49
2022-09-01T05:00:22.866Z,12.47
2022-09-01T05:03:04.971Z,12.46
2022-09-01T05:05:43.111Z,12.45
2022-09-01T05:08:23.137Z,12.46
2022-09-01T05:10:55.921Z,12.55
2022-09-01T05:13:24.154Z,12.60
2022-09-01T05:16:04.096Z,12.53
2022-09-01T05:18:31.157Z,12.55
2022-09-01T05:20:58.067Z,12.54
2022-09-01T05:23:26.533Z,12.64
2022-09-01T05:25:57.229Z,12.71
2022-09-01T05:28:25.474Z,12.81
2022-09-01T05:30:54.408Z,12.94
2022-09-01T05:33:22.500Z,12.96
2022-09-01T05:35:57.214Z,12.97
2022-09-01T05:38:25.743Z,13.05
2022-09-01T05:41:02.152Z,13.15
2022-09-01T05:43:30.981Z,13.26
2022-09-01T05:46:06.976Z,13.36
2022-09-01T05:48:40.006Z,13.46
2022-09-01T05:51:22.307Z,13.53
2022-09-01T05:53:59.343Z,13.65
2022-09-01T05:56:29.551Z,13.73
2022-09-01T06:01:50.365Z,13.98
2022-09-01T06:04:18.131Z,14.09
2022-09-01T06:07:05.338Z,14.23
2022-09-01T06:09:40.662Z,14.40
2022-09-01T06:12:18.637Z,14.33
2022-09-01T06:14:53.141Z,14.50
2022-09-01T06:17:26.864Z,14.56
2022-09-01T06:19:56.662Z,14.86
2022-09-01T06:22:28.062Z,15.13
2022-09-01T06:25:01.007Z,15.31
2022-09-01T06:27:29.519Z,15.40
2022-09-01T06:29:58.390Z,15.36
2022-09-01T06:32:27.164Z,15.36
2022-09-01T06:34:54.659Z,15.51
2022-09-01T06:37:22.928Z,15.65
2022-09-01T06:39:51.024Z,15.73
2022-09-01T06:42:20.198Z,16.04
2022-09-01T06:44:47.411Z,16.30
2022-09-01T06:47:15.520Z,16.37
2022-09-01T06:49:43.005Z,16.53
2022-09-01T06:52:11.886Z,16.43
2022-09-01T06:54:41.342Z,16.62
2022-09-01T06:59:55.292Z,16.71
2022-09-01T07:02:26.510Z,16.68
2022-09-01T07:04:54.744Z,16.80
2022-09-01T07:10:24.850Z,17.16
2022-09-01T07:13:11.582Z,17.31
2022-09-01T07:18:32.746Z,17.51
2022-09-01T07:21:07.954Z,17.66
2022-09-01T07:24:10.404Z,17.97
2022-09-01T07:26:48.292Z,17.77
2022-09-01T07:29:16.625Z,17.93
2022-09-01T07:32:41.184Z,17.55
2022-09-01T07:34:40.390Z,18.01
2022-09-01T07:38:03.680Z,18.19
2022-09-01T07:39:56.490Z,18.68
2022-09-01T07:45:30.611Z,17.96
2022-09-01T07:48:03.306Z,18.27
2022-09-01T07:51:07.415Z,18.74
2022-09-01T07:53:31.591Z,18.77
2022-09-01T07:56:09.552Z,19.22
2022-09-01T07:58:39.450Z,19.49
2022-09-01T08:01:09.811Z,18.82
2022-09-01T08:03:37.721Z,18.93
2022-09-01T08:06:12.765Z,19.44
2022-09-01T08:08:41.270Z,19.35
2022-09-01T08:11:08.724Z,19.53
2022-09-01T08:13:41.871Z,19.62
2022-09-01T08:16:18.083Z,19.51
2022-09-01T08:18:48.558Z,19.53
2022-09-01T08:21:18.737Z,19.15
2022-09-01T08:23:45.817Z,19.38
2022-09-01T08:26:16.922Z,19.32
2022-09-01T08:28:54.352Z,19.60
2022-09-01T08:31:24.778Z,19.55
2022-09-01T08:33:52.478Z,19.81
2022-09-01T08:36:24.034Z,19.77
2022-09-01T08:38:53.351Z,20.08
2022-09-01T08:41:46.964Z,20.14
2022-09-01T08:44:38.784Z,20.41
2022-09-01T08:47:15.520Z,20.42
2022-09-01T08:49:46.956Z,20.48
2022-09-01T08:52:31.188Z,20.11
2022-09-01T08:55:16.174Z,19.84
2022-09-01T08:57:46.089Z,19.86
2022-09-01T09:00:18.206Z,20.16
2022-09-01T09:03:12.379Z,20.56
2022-09-01T09:06:07.970Z,20.70
2022-09-01T09:08:59.064Z,20.36
2022-09-01T09:11:46.604Z,19.09
2022-09-01T09:14:43.040Z,19.53
2022-09-01T09:17:11.167Z,20.04
2022-09-01T09:19:42.573Z,20.35
2022-09-01T09:22:15.431Z,20.23
2022-09-01T09:24:51.308Z,20.17
2022-09-01T09:27:29.600Z,19.97
2022-09-01T09:30:11.746Z,19.99
2022-09-01T09:33:37.235Z,20.67
2022-09-01T09:35:46.420Z,20.66
2022-09-01T09:38:33.714Z,20.51
2022-09-01T09:41:16.514Z,20.29
2022-09-01T09:43:59.218Z,20.83
2022-09-01T09:46:32.181Z,20.70
2022-09-01T09:49:34.708Z,20.68
2022-09-01T09:52:03.340Z,20.37
2022-09-01T09:54:34.299Z,20.83
2022-09-01T09:57:16.359Z,21.27
2022-09-01T10:00:04.764Z,21.20
2022-09-01T10:02:56.035Z,21.19
2022-09-01T10:05:40.306Z,21.15
2022-09-01T10:08:13.012Z,21.38
2022-09-01T10:10:58.384Z,21.32
2022-09-01T10:13:31.452Z,21.10
2022-09-01T10:16:14.689Z,21.18
2022-09-01T10:18:51.891Z,19.73
2022-09-01T10:21:30.597Z,19.90
2022-09-01T10:24:21.026Z,20.96
2022-09-01T10:26:55.494Z,21.35
2022-09-01T10:29:46.977Z,21.20
2022-09-01T10:32:37.922Z,21.51
2022-09-01T10:35:26.077Z,21.15
2022-09-01T10:37:55.909Z,20.67
2022-09-01T10:40:31.116Z,20.47
2022-09-01T10:43:24.880Z,21.04
2022-09-01T10:45:57.959Z,20.89
2022-09-01T10:48:46.360Z,20.32
2022-09-01T10:51:21.108Z,20.07
2022-09-01T10:53:53.488Z,19.96
2022-09-01T10:56:44.384Z,19.84
2022-09-01T10:59:35.800Z,20.02
2022-09-01T11:02:28.003Z,20.13
2022-09-01T11:04:55.745Z,19.90
2022-09-01T11:07:38.877Z,19.45
2022-09-01T11:10:42.989Z,19.44
2022-09-01T11:13:36.249Z,19.86
2022-09-01T11:16:51.367Z,20.23
2022-09-01T11:19:18.129Z,20.77
2022-09-01T11:21:45.341Z,20.97
2022-09-01T11:24:40.396Z,20.81
2022-09-01T11:27:33.449Z,21.16
2022-09-01T11:30:09.371Z,21.20
2022-09-01T11:32:43.746Z,21.25
2022-09-01T11:35:24.588Z,21.56
2022-09-01T11:37:57.406Z,21.51
2022-09-01T11:40:32.644Z,21.20
2022-09-01T11:43:12.980Z,21.12
2022-09-01T11:46:20.744Z,21.51
2022-09-01T11:48:51.729Z,21.29
2022-09-01T11:51:21.472Z,20.94
2022-09-01T11:53:51.473Z,20.68
2022-09-01T11:56:28.111Z,20.55
2022-09-01T11:58:54.875Z,20.25
2022-09-01T12:01:33.219Z,20.20
2022-09-01T12:04:28.585Z,20.04
2022-09-01T12:07:02.362Z,19.82
2022-09-01T12:09:41.866Z,19.73
2022-09-01T12:12:37.349Z,19.95
2022-09-01T12:15:22.342Z,20.01
2022-09-01T12:17:49.916Z,19.97
2022-09-01T12:20:33.024Z,19.95
2022-09-01T12:23:02.375Z,20.12
2022-09-01T12:25:33.473Z,20.25
2022-09-01T12:28:10.965Z,20.36
2022-09-01T12:30:41.148Z,20.34
2022-09-01T12:33:28.271Z,20.10
2022-09-01T12:36:31.015Z,20.02
2022-09-01T12:39:17.603Z,20.22
2022-09-01T12:41:50.625Z,20.17
2022-09-01T12:44:44.678Z,20.16
2022-09-01T12:47:33.665Z,20.15
2022-09-01T12:50:24.870Z,20.28
2022-09-01T12:52:58.726Z,20.45
2022-09-01T12:58:25.860Z,20.46
2022-09-01T13:01:16.758Z,20.55
2022-09-01T13:04:24.040Z,20.73
2022-09-01T13:06:53.439Z,20.72
2022-09-01T13:09:20.485Z,20.62
2022-09-01T13:14:34.355Z,20.85
2022-09-01T13:17:01.223Z,20.72
2022-09-01T13:19:30.444Z,20.57
2022-09-01T13:21:57.859Z,20.97
2022-09-01T13:24:28.680Z,21.29
2022-09-01T13:29:45.658Z,21.07
2022-09-01T13:32:27.778Z,21.07
2022-09-01T13:34:55.119Z,21.07
2022-09-01T13:37:22.814Z,20.71
2022-09-01T13:39:50.339Z,20.92
2022-09-01T13:42:18.471Z,20.93
2022-09-01T13:44:49.689Z,21.11
2022-09-01T13:47:35.431Z,21.10
2022-09-01T13:50:10.513Z,21.14
2022-09-01T13:52:44.558Z,20.84
2022-09-01T13:55:25.142Z,21.04
2022-09-01T13:57:55.849Z,20.96
2022-09-01T14:00:33.560Z,21.38
2022-09-01T14:03:06.097Z,21.46
2022-09-01T14:05:38.468Z,21.09
2022-09-01T14:08:08.671Z,20.78
2022-09-01T14:10:41.685Z,21.49
2022-09-01T14:13:11.516Z,21.63
2022-09-01T14:15:39.172Z,21.95
2022-09-01T14:18:06.753Z,21.97
2022-09-01T14:20:39.690Z,21.33
2022-09-01T14:23:08.692Z,20.91
2022-09-01T14:25:35.977Z,21.46
2022-09-01T14:28:03.914Z,21.45
2022-09-01T14:30:33.160Z,21.38
2022-09-01T14:33:01.763Z,21.63
2022-09-01T14:35:33.294Z,21.52
2022-09-01T14:38:02.926Z,21.30
2022-09-01T14:40:30.009Z,20.87
2022-09-01T14:42:56.962Z,21.26
2022-09-01T14:45:28.826Z,21.79
2022-09-01T14:48:00.765Z,21.47
2022-09-01T14:50:33.947Z,21.45
2022-09-01T14:53:03.525Z,21.75
2022-09-01T14:55:32.816Z,22.13
2022-09-01T14:58:00.873Z,22.00
2022-09-01T15:00:30.214Z,22.08
2022-09-01T15:02:59.087Z,22.25
2022-09-01T15:05:26.459Z,22.21
2022-09-01T15:07:54.731Z,22.18
2022-09-01T15:10:26.223Z,21.94
2022-09-01T15:13:00.196Z,21.77
2022-09-01T15:15:28.862Z,21.13
2022-09-01T15:17:56.858Z,21.14
2022-09-01T15:20:43.562Z,21.83
2022-09-01T15:23:22.950Z,22.12
2022-09-01T15:25:54.394Z,21.55
2022-09-01T15:28:22.776Z,21.80
2022-09-01T15:30:51.120Z,21.61
2022-09-01T15:33:21.364Z,21.60
2022-09-01T15:35:48.146Z,21.81
2022-09-01T15:38:17.753Z,21.56
2022-09-01T15:40:51.977Z,22.18
2022-09-01T15:43:25.187Z,22.21
2022-09-01T15:45:51.978Z,22.25
2022-09-01T15:48:18.825Z,21.70
2022-09-01T15:50:45.683Z,21.60
2022-09-01T15:53:13.313Z,21.52
2022-09-01T15:55:49.757Z,21.35
2022-09-01T15:58:20.277Z,21.37
2022-09-01T16:00:47.108Z,21.08
2022-09-01T16:03:14.030Z,20.80
2022-09-01T16:05:41.555Z,20.61
2022-09-01T16:08:12.468Z,20.41
2022-09-01T16:10:42.429Z,20.39
2022-09-01T16:13:11.007Z,20.23
2022-09-01T16:15:49.342Z,20.19
2022-09-01T16:19:15.907Z,20.32
2022-09-01T16:22:08.633Z,20.33
2022-09-01T16:24:47.884Z,20.29
2022-09-01T16:27:19.864Z,20.24
2022-09-01T16:29:55.941Z,20.05
2022-09-01T16:32:23.965Z,19.75
2022-09-01T16:34:52.729Z,19.58
2022-09-01T16:38:12.549Z,19.53
2022-09-01T16:40:58.358Z,19.39
2022-09-01T16:44:05.833Z,19.29
2022-09-01T16:46:45.557Z,19.18
2022-09-01T16:49:33.185Z,19.18
2022-09-01T16:52:20.944Z,19.12
2022-09-01T16:54:56.461Z,19.03
2022-09-01T16:58:03.622Z,18.95
2022-09-01T17:01:06.581Z,18.89
2022-09-01T17:04:13.570Z,18.88
2022-09-01T17:06:58.678Z,18.86
2022-09-01T17:09:45.831Z,18.75
2022-09-01T17:12:50.498Z,18.71
2022-09-01T17:15:39.616Z,18.68
2022-09-01T17:18:23.137Z,18.62
2022-09-01T17:21:02.291Z,18.53
2022-09-01T17:23:40.861Z,18.51
2022-09-01T17:26:23.062Z,18.53
2022-09-01T17:29:00.281Z,18.43
2022-09-01T17:31:58.187Z,18.30
2022-09-01T17:34:49.925Z,18.28
2022-09-01T17:37:28.707Z,18.20
2022-09-01T17:40:20.285Z,18.17
2022-09-01T17:43:06.679Z,18.14
2022-09-01T17:45:52.634Z,18.07
2022-09-01T17:48:36.028Z,17.97
2022-09-01T17:51:33.679Z,17.85
2022-09-01T17:54:30.957Z,17.77
2022-09-01T17:57:12.759Z,17.72
2022-09-01T17:59:48.337Z,17.61
2022-09-01T18:02:50.175Z,17.52
2022-09-01T18:05:24.426Z,17.41
2022-09-01T18:08:13.649Z,17.34
2022-09-01T18:10:50.677Z,17.24
2022-09-01T18:13:52.911Z,17.24
2022-09-01T18:16:28.570Z,17.25
2022-09-01T18:19:05.535Z,17.24
2022-09-01T18:21:40.891Z,17.16
2022-09-01T18:24:27.095Z,17.07
2022-09-01T18:26:53.809Z,16.80
2022-09-01T18:29:25.186Z,16.79
2022-09-01T18:32:06.911Z,16.84
2022-09-01T18:35:05.502Z,16.91
2022-09-01T18:38:12.893Z,16.89
2022-09-01T18:41:09.854Z,16.84
2022-09-01T18:43:44.206Z,16.77
2022-09-01T18:46:29.577Z,16.69
2022-09-01T18:48:56.894Z,16.55
2022-09-01T18:51:30.279Z,16.54
2022-09-01T18:54:09.271Z,16.51
2022-09-01T18:57:03.793Z,16.48
2022-09-01T19:00:00.662Z,16.42
2022-09-01T19:02:50.007Z,16.42
2022-09-01T19:05:20.616Z,16.35
2022-09-01T19:08:04.657Z,16.28
2022-09-01T19:11:08.706Z,16.29
2022-09-01T19:13:46.700Z,16.18
2022-09-01T19:16:55.270Z,16.07
2022-09-01T19:19:43.835Z,15.98
2022-09-01T19:22:21.075Z,15.95
2022-09-01T19:25:16.489Z,15.93
2022-09-01T19:27:57.670Z,15.83
2022-09-01T19:30:24.448Z,15.69
2022-09-01T19:32:51.820Z,15.66
2022-09-01T19:35:19.039Z,15.60
2022-09-01T19:37:51.000Z,15.59
2022-09-01T19:40:32.084Z,15.50
2022-09-01T19:43:10.039Z,15.41
2022-09-01T19:45:59.474Z,15.41
2022-09-01T19:49:12.851Z,15.51
2022-09-01T19:51:51.268Z,15.46
2022-09-01T19:54:51.957Z,15.47
2022-09-01T19:57:46.278Z,15.29
2022-09-01T20:00:18.705Z,15.15
2022-09-01T20:03:07.643Z,15.22
2022-09-01T20:06:05.789Z,15.26
2022-09-01T20:09:16.791Z,15.17
2022-09-01T20:12:01.995Z,15.16
2022-09-01T20:15:21.635Z,15.11
2022-09-01T20:18:09.203Z,15.03
2022-09-01T20:20:46.825Z,15.01
2022-09-01T20:23:32.741Z,14.89
2022-09-01T20:26:23.350Z,14.78
2022-09-01T20:29:18.295Z,14.76
2022-09-01T20:31:55.506Z,14.77
2022-09-01T20:34:46.023Z,14.70
2022-09-01T20:37:21.371Z,14.66
2022-09-01T20:40:05.051Z,14.72
2022-09-01T20:43:07.180Z,14.81
2022-09-01T20:45:34.577Z,14.84
2022-09-01T20:48:14.310Z,14.84
2022-09-01T20:51:08.163Z,14.76
2022-09-01T20:54:02.723Z,14.72
2022-09-01T20:56:52.005Z,14.62
2022-09-01T20:59:39.945Z,14.57
2022-09-01T21:02:33.403Z,14.58
2022-09-01T21:05:41.554Z,14.52
2022-09-01T21:08:37.057Z,14.48
2022-09-01T21:11:52.594Z,14.48
2022-09-01T21:14:56.754Z,14.42
2022-09-01T21:17:35.239Z,14.37
2022-09-01T21:20:22.003Z,14.29
2022-09-01T21:22:51.022Z,14.29
2022-09-01T21:25:17.733Z,14.26
2022-09-01T21:27:52.679Z,14.21
2022-09-01T21:30:21.021Z,14.22
2022-09-01T21:32:48.646Z,14.20
2022-09-01T21:35:19.661Z,14.18
2022-09-01T21:37:47.096Z,14.25
2022-09-01T21:40:15.940Z,14.25
2022-09-01T21:42:49.863Z,14.28
2022-09-01T21:45:19.508Z,14.31
2022-09-01T21:47:48.909Z,14.23
2022-09-01T21:50:19.621Z,14.22
2022-09-01T21:52:46.356Z,14.21
2022-09-01T21:55:13.806Z,14.24
2022-09-01T21:57:42.154Z,14.18
2022-09-01T22:00:18.401Z,14.18
2022-09-01T22:02:46.383Z,14.10
2022-09-01T22:05:14.319Z,13.97
2022-09-01T22:07:45.413Z,14.00
2022-09-01T22:10:20.919Z,13.98
2022-09-01T22:12:50.770Z,13.97
2022-09-01T22:15:22.544Z,13.85
2022-09-01T22:17:51.015Z,13.82
2022-09-01T22:20:22.476Z,13.71
2022-09-01T22:22:50.539Z,13.75
2022-09-01T22:25:24.152Z,13.76
2022-09-01T22:27:51.073Z,13.70
2022-09-01T22:30:19.260Z,13.66
2022-09-01T22:32:47.977Z,13.78
2022-09-01T22:35:17.047Z,13.80
2022-09-01T22:37:44.576Z,13.78
2022-09-01T22:40:13.664Z,13.72
2022-09-01T22:42:40.466Z,13.70
2022-09-01T22:45:09.778Z,13.70
2022-09-01T22:47:38.623Z,13.73
2022-09-01T22:50:08.995Z,13.76
2022-09-01T22:52:37.095Z,13.73
2022-09-01T22:55:06.264Z,13.62
2022-09-01T22:57:33.614Z,13.64
2022-09-01T23:00:01.012Z,13.59
2022-09-01T23:02:28.399Z,13.58
2022-09-01T23:04:55.236Z,13.48
2022-09-01T23:07:22.020Z,13.46
2022-09-01T23:09:48.745Z,13.39
2022-09-01T23:12:17.360Z,13.36
2022-09-01T23:14:44.096Z,13.27
2022-09-01T23:17:11.247Z,13.26
2022-09-01T23:19:38.158Z,13.21
2022-09-01T23:22:05.030Z,13.25
2022-09-01T23:24:31.741Z,13.33
2022-09-01T23:26:58.546Z,13.41
2022-09-01T23:29:25.525Z,13.40
2022-09-01T23:31:52.609Z,13.38
2022-09-01T23:34:19.586Z,13.34
2022-09-01T23:36:46.742Z,13.27
2022-09-01T23:39:14.416Z,13.24
2022-09-01T23:41:42.063Z,13.06
2022-09-01T23:44:12.090Z,13.11
2022-09-01T23:46:45.028Z,13.11
2022-09-01T23:49:15.545Z,13.04
2022-09-01T23:51:43.859Z,13.08
2022-09-01T23:54:11.938Z,13.05
2022-09-01T23:56:40.047Z,12.99
2022-09-01T23:59:08.393Z,12.94
